Stinson Municipal Airport
KSSF : now visible

Airfield :











YOU CAN JOIN US ON...

 
LOGIN :

Register | Disclaimer

   EN    FR    IT 

 









Legend :    VFR   Marginal VFR   IFR   Intensive IFR   Very Intensive IFR
Visi :
Ceiling :
>= 8 km
>= 3000ft
5 to 8 km
1000 to 3000 ft
1500m to 5 km
500 to 1000 ft
800 to 1500m
200 to 500 ft
< 800m
< 200 ft
Symbols :   Thunderstorms  Fog  Heavy snow  Heavy precipitations  Wind > 20 kt






- Airport Elevation : 577 ft


KSSF - Stinson Municipal

CURRENT METAR :
  • 180953Z AUTO 00000KT 10SM CLR 25/23 A2995 RMK AO2 SLP129 T02500233

EXPIRED METARs :
  • 180853Z AUTO 00000KT 10SM CLR 26/23 A2995 RMK AO2 SLP128 T02610233 53001
  • 180753Z AUTO 14003KT 10SM CLR 27/23 A2995 RMK AO2 SLP126 T02670233

TAF KSSF
Valid from the 18 at 06:00 until the 19 at 06:00 UTC


180540Z 1806/1906 17007KT P6SM FEW070 BKN250
FM180900 20005KT P6SM SCT010
FM181500 22005KT P6SM SCT050 BKN250
FM182100 16007KT P6SM VCTS BKN050CB BKN250
PROB30 1822/1904 4SM TSRA BR BKN050CB
FM190400 04009KT P6SM BKN060 BKN200
KZHU FIR / North America



MET'MAP, your aeronautical weather chart ! - Copyright ORBIFLY December 2007 - Disclaimer

ORBIFLY MET'MAP TEAM :

Programming & Development : Alexandra Zaïnal
Original concept : Baudouin d'Aumeries
Technical & hardware support : Manuel Goepfert
Assistance : Marc-Olivier Méhu




SOURCES & CREDITS :

   NOAA       Earth
Advisory